sensor_id;sensor_type;location;lat;lon;timestamp;P1;durP1;ratioP1;P2;durP2;ratioP2
65031;SDS011;51593;55.714;37.436;2022-10-22T00:00:05;6.75;;;4.18;;
65031;SDS011;51593;55.714;37.436;2022-10-22T00:02:33;8.57;;;3.90;;
65031;SDS011;51593;55.714;37.436;2022-10-22T00:04:58;6.63;;;3.65;;
65031;SDS011;51593;55.714;37.436;2022-10-22T00:07:24;6.78;;;3.92;;
65031;SDS011;51593;55.714;37.436;2022-10-22T00:09:50;7.82;;;4.40;;
65031;SDS011;51593;55.714;37.436;2022-10-22T00:12:15;7.70;;;4.20;;
65031;SDS011;51593;55.714;37.436;2022-10-22T00:14:41;8.60;;;4.78;;
65031;SDS011;51593;55.714;37.436;2022-10-22T00:17:07;10.20;;;4.93;;
65031;SDS011;51593;55.714;37.436;2022-10-22T00:19:33;8.23;;;4.90;;
65031;SDS011;51593;55.714;37.436;2022-10-22T00:21:59;8.98;;;4.45;;
65031;SDS011;51593;55.714;37.436;2022-10-22T00:24:24;8.13;;;4.88;;
65031;SDS011;51593;55.714;37.436;2022-10-22T00:26:50;7.32;;;4.63;;
65031;SDS011;51593;55.714;37.436;2022-10-22T00:29:16;8.52;;;4.60;;
65031;SDS011;51593;55.714;37.436;2022-10-22T00:31:45;9.20;;;5.40;;
65031;SDS011;51593;55.714;37.436;2022-10-22T00:34:17;8.73;;;5.20;;
65031;SDS011;51593;55.714;37.436;2022-10-22T00:36:45;8.27;;;4.88;;
65031;SDS011;51593;55.714;37.436;2022-10-22T00:39:13;10.05;;;5.53;;
65031;SDS011;51593;55.714;37.436;2022-10-22T00:41:41;13.15;;;5.68;;
65031;SDS011;51593;55.714;37.436;2022-10-22T00:44:56;11.23;;;5.85;;
65031;SDS011;51593;55.714;37.436;2022-10-22T00:47:11;10.48;;;6.20;;
65031;SDS011;51593;55.714;37.436;2022-10-22T00:49:37;11.02;;;6.03;;
65031;SDS011;51593;55.714;37.436;2022-10-22T00:52:03;10.30;;;6.10;;
65031;SDS011;51593;55.714;37.436;2022-10-22T00:54:28;12.52;;;6.03;;
65031;SDS011;51593;55.714;37.436;2022-10-22T00:56:54;10.07;;;5.85;;
65031;SDS011;51593;55.714;37.436;2022-10-22T00:59:20;10.60;;;6.57;;
65031;SDS011;51593;55.714;37.436;2022-10-22T01:01:46;11.15;;;6.18;;
65031;SDS011;51593;55.714;37.436;2022-10-22T01:04:12;8.90;;;5.90;;
65031;SDS011;51593;55.714;37.436;2022-10-22T01:06:38;11.25;;;6.38;;
65031;SDS011;51593;55.714;37.436;2022-10-22T01:31:16;9.05;;;5.68;;
65031;SDS011;51593;55.714;37.436;2022-10-22T01:33:43;8.88;;;5.07;;
65031;SDS011;51593;55.714;37.436;2022-10-22T01:36:11;8.18;;;4.72;;
65031;SDS011;51593;55.714;37.436;2022-10-22T01:38:37;9.18;;;5.20;;
65031;SDS011;51593;55.714;37.436;2022-10-22T01:41:04;7.93;;;5.20;;
65031;SDS011;51593;55.714;37.436;2022-10-22T01:43:31;8.77;;;5.50;;
65031;SDS011;51593;55.714;37.436;2022-10-22T01:45:58;9.80;;;5.57;;
65031;SDS011;51593;55.714;37.436;2022-10-22T01:48:29;9.13;;;5.45;;
65031;SDS011;51593;55.714;37.436;2022-10-22T01:59:16;8.63;;;5.18;;
65031;SDS011;51593;55.714;37.436;2022-10-22T02:02:12;9.18;;;5.15;;
65031;SDS011;51593;55.714;37.436;2022-10-22T02:04:56;8.60;;;5.28;;
65031;SDS011;51593;55.714;37.436;2022-10-22T02:07:26;8.15;;;5.22;;
65031;SDS011;51593;55.714;37.436;2022-10-22T02:09:54;9.18;;;4.72;;
65031;SDS011;51593;55.714;37.436;2022-10-22T02:12:20;7.65;;;4.93;;
65031;SDS011;51593;55.714;37.436;2022-10-22T02:14:47;8.00;;;4.78;;
65031;SDS011;51593;55.714;37.436;2022-10-22T02:17:15;7.97;;;4.72;;
65031;SDS011;51593;55.714;37.436;2022-10-22T02:19:46;8.90;;;4.93;;
65031;SDS011;51593;55.714;37.436;2022-10-22T02:22:22;8.48;;;5.03;;
65031;SDS011;51593;55.714;37.436;2022-10-22T02:24:49;10.27;;;4.90;;
65031;SDS011;51593;55.714;37.436;2022-10-22T02:32:35;11.30;;;5.68;;
65031;SDS011;51593;55.714;37.436;2022-10-22T02:35:04;8.20;;;5.15;;
65031;SDS011;51593;55.714;37.436;2022-10-22T02:37:31;10.32;;;5.40;;
65031;SDS011;51593;55.714;37.436;2022-10-22T02:39:58;8.70;;;5.40;;
65031;SDS011;51593;55.714;37.436;2022-10-22T02:42:24;8.13;;;5.03;;
65031;SDS011;51593;55.714;37.436;2022-10-22T02:44:50;8.80;;;4.82;;
65031;SDS011;51593;55.714;37.436;2022-10-22T02:47:16;10.05;;;5.57;;
65031;SDS011;51593;55.714;37.436;2022-10-22T02:49:42;8.27;;;5.07;;
65031;SDS011;51593;55.714;37.436;2022-10-22T02:52:08;8.75;;;4.93;;
65031;SDS011;51593;55.714;37.436;2022-10-22T02:54:33;10.27;;;5.00;;
65031;SDS011;51593;55.714;37.436;2022-10-22T02:56:59;7.80;;;4.65;;
65031;SDS011;51593;55.714;37.436;2022-10-22T02:59:25;8.90;;;4.45;;
65031;SDS011;51593;55.714;37.436;2022-10-22T03:01:50;10.93;;;4.47;;
65031;SDS011;51593;55.714;37.436;2022-10-22T03:04:16;7.88;;;4.70;;
65031;SDS011;51593;55.714;37.436;2022-10-22T03:06:42;8.00;;;4.85;;
65031;SDS011;51593;55.714;37.436;2022-10-22T03:09:09;8.63;;;4.97;;
65031;SDS011;51593;55.714;37.436;2022-10-22T03:11:35;12.07;;;5.18;;
65031;SDS011;51593;55.714;37.436;2022-10-22T03:14:01;8.68;;;5.30;;
65031;SDS011;51593;55.714;37.436;2022-10-22T03:16:26;8.70;;;5.20;;
65031;SDS011;51593;55.714;37.436;2022-10-22T03:18:52;11.10;;;5.72;;
65031;SDS011;51593;55.714;37.436;2022-10-22T03:23:55;12.48;;;7.15;;
65031;SDS011;51593;55.714;37.436;2022-10-22T03:26:21;10.55;;;6.80;;
65031;SDS011;51593;55.714;37.436;2022-10-22T03:28:46;12.75;;;7.57;;
65031;SDS011;51593;55.714;37.436;2022-10-22T03:31:13;11.43;;;7.07;;
65031;SDS011;51593;55.714;37.436;2022-10-22T03:33:38;14.35;;;7.68;;
65031;SDS011;51593;55.714;37.436;2022-10-22T03:36:05;12.05;;;8.13;;
65031;SDS011;51593;55.714;37.436;2022-10-22T03:38:31;19.40;;;8.60;;
65031;SDS011;51593;55.714;37.436;2022-10-22T03:41:02;11.27;;;7.07;;
65031;SDS011;51593;55.714;37.436;2022-10-22T03:43:27;13.07;;;8.02;;
65031;SDS011;51593;55.714;37.436;2022-10-22T03:45:53;12.25;;;7.25;;
65031;SDS011;51593;55.714;37.436;2022-10-22T03:48:19;13.63;;;7.53;;
65031;SDS011;51593;55.714;37.436;2022-10-22T03:50:44;11.65;;;6.75;;
65031;SDS011;51593;55.714;37.436;2022-10-22T03:53:10;10.75;;;5.20;;
65031;SDS011;51593;55.714;37.436;2022-10-22T03:55:36;7.82;;;4.85;;
65031;SDS011;51593;55.714;37.436;2022-10-22T03:58:03;9.07;;;5.28;;
65031;SDS011;51593;55.714;37.436;2022-10-22T04:00:29;10.10;;;4.90;;
65031;SDS011;51593;55.714;37.436;2022-10-22T04:02:55;9.43;;;5.05;;
65031;SDS011;51593;55.714;37.436;2022-10-22T04:05:20;7.97;;;4.90;;
65031;SDS011;51593;55.714;37.436;2022-10-22T04:07:46;7.53;;;4.95;;
65031;SDS011;51593;55.714;37.436;2022-10-22T04:10:11;8.88;;;5.40;;
65031;SDS011;51593;55.714;37.436;2022-10-22T04:12:37;9.48;;;5.13;;
65031;SDS011;51593;55.714;37.436;2022-10-22T04:15:03;8.88;;;5.20;;
65031;SDS011;51593;55.714;37.436;2022-10-22T04:17:33;11.55;;;5.43;;
65031;SDS011;51593;55.714;37.436;2022-10-22T04:19:59;12.90;;;6.20;;
65031;SDS011;51593;55.714;37.436;2022-10-22T04:22:25;17.50;;;6.47;;
65031;SDS011;51593;55.714;37.436;2022-10-22T04:24:51;14.73;;;6.55;;
65031;SDS011;51593;55.714;37.436;2022-10-22T04:27:17;12.52;;;6.97;;
65031;SDS011;51593;55.714;37.436;2022-10-22T04:29:42;12.05;;;7.20;;
65031;SDS011;51593;55.714;37.436;2022-10-22T04:32:08;13.27;;;7.47;;
65031;SDS011;51593;55.714;37.436;2022-10-22T04:34:34;13.10;;;7.68;;
65031;SDS011;51593;55.714;37.436;2022-10-22T04:36:59;17.48;;;7.90;;
65031;SDS011;51593;55.714;37.436;2022-10-22T04:39:25;14.32;;;8.18;;
65031;SDS011;51593;55.714;37.436;2022-10-22T04:41:51;14.02;;;8.70;;
65031;SDS011;51593;55.714;37.436;2022-10-22T04:44:16;17.55;;;9.88;;
65031;SDS011;51593;55.714;37.436;2022-10-22T04:46:42;17.10;;;9.20;;
65031;SDS011;51593;55.714;37.436;2022-10-22T04:49:08;16.48;;;9.35;;
65031;SDS011;51593;55.714;37.436;2022-10-22T04:51:34;15.55;;;9.63;;
65031;SDS011;51593;55.714;37.436;2022-10-22T04:53:59;19.98;;;9.45;;
65031;SDS011;51593;55.714;37.436;2022-10-22T04:56:26;18.17;;;9.93;;
65031;SDS011;51593;55.714;37.436;2022-10-22T04:58:56;17.80;;;10.20;;
65031;SDS011;51593;55.714;37.436;2022-10-22T05:01:28;15.60;;;10.13;;
65031;SDS011;51593;55.714;37.436;2022-10-22T05:03:56;16.17;;;10.10;;
65031;SDS011;51593;55.714;37.436;2022-10-22T05:06:24;16.65;;;9.50;;
65031;SDS011;51593;55.714;37.436;2022-10-22T05:08:54;16.67;;;9.95;;
65031;SDS011;51593;55.714;37.436;2022-10-22T05:11:28;17.42;;;9.48;;
65031;SDS011;51593;55.714;37.436;2022-10-22T05:13:56;15.00;;;9.27;;
65031;SDS011;51593;55.714;37.436;2022-10-22T05:16:22;14.93;;;8.50;;
65031;SDS011;51593;55.714;37.436;2022-10-22T05:18:48;19.63;;;9.35;;
65031;SDS011;51593;55.714;37.436;2022-10-22T05:21:18;18.73;;;9.30;;
65031;SDS011;51593;55.714;37.436;2022-10-22T05:23:45;18.77;;;9.15;;
65031;SDS011;51593;55.714;37.436;2022-10-22T05:26:13;14.52;;;8.55;;
65031;SDS011;51593;55.714;37.436;2022-10-22T05:28:41;17.85;;;8.77;;
65031;SDS011;51593;55.714;37.436;2022-10-22T05:31:07;13.80;;;8.50;;
65031;SDS011;51593;55.714;37.436;2022-10-22T05:33:34;14.13;;;7.78;;
65031;SDS011;51593;55.714;37.436;2022-10-22T05:36:00;17.70;;;9.18;;
65031;SDS011;51593;55.714;37.436;2022-10-22T05:38:27;15.15;;;8.43;;
65031;SDS011;51593;55.714;37.436;2022-10-22T05:40:59;21.05;;;10.18;;
65031;SDS011;51593;55.714;37.436;2022-10-22T05:43:30;15.70;;;8.68;;
65031;SDS011;51593;55.714;37.436;2022-10-22T05:45:56;19.40;;;8.80;;
65031;SDS011;51593;55.714;37.436;2022-10-22T05:48:30;17.35;;;8.60;;
65031;SDS011;51593;55.714;37.436;2022-10-22T05:50:56;15.75;;;8.52;;
65031;SDS011;51593;55.714;37.436;2022-10-22T05:53:22;14.80;;;7.88;;
65031;SDS011;51593;55.714;37.436;2022-10-22T05:55:47;13.55;;;7.75;;
65031;SDS011;51593;55.714;37.436;2022-10-22T05:58:13;14.00;;;8.02;;
65031;SDS011;51593;55.714;37.436;2022-10-22T06:00:39;12.57;;;7.20;;
65031;SDS011;51593;55.714;37.436;2022-10-22T06:03:05;12.77;;;7.68;;
65031;SDS011;51593;55.714;37.436;2022-10-22T06:05:34;12.30;;;8.05;;
65031;SDS011;51593;55.714;37.436;2022-10-22T06:08:00;12.00;;;7.43;;
65031;SDS011;51593;55.714;37.436;2022-10-22T06:10:27;12.40;;;7.97;;
65031;SDS011;51593;55.714;37.436;2022-10-22T06:12:53;13.40;;;7.68;;
65031;SDS011;51593;55.714;37.436;2022-10-22T06:15:18;17.67;;;8.35;;
65031;SDS011;51593;55.714;37.436;2022-10-22T06:17:45;15.82;;;8.93;;
65031;SDS011;51593;55.714;37.436;2022-10-22T06:20:12;19.75;;;9.35;;
65031;SDS011;51593;55.714;37.436;2022-10-22T06:22:38;19.00;;;9.10;;
65031;SDS011;51593;55.714;37.436;2022-10-22T06:25:04;16.33;;;8.18;;
65031;SDS011;51593;55.714;37.436;2022-10-22T06:27:30;14.20;;;8.02;;
65031;SDS011;51593;55.714;37.436;2022-10-22T06:29:57;23.27;;;9.18;;
65031;SDS011;51593;55.714;37.436;2022-10-22T06:32:22;19.27;;;9.15;;
65031;SDS011;51593;55.714;37.436;2022-10-22T06:34:48;27.58;;;9.68;;
65031;SDS011;51593;55.714;37.436;2022-10-22T06:37:14;22.23;;;9.38;;
65031;SDS011;51593;55.714;37.436;2022-10-22T06:39:40;25.95;;;9.65;;
65031;SDS011;51593;55.714;37.436;2022-10-22T06:42:06;25.33;;;9.98;;
65031;SDS011;51593;55.714;37.436;2022-10-22T06:44:33;17.75;;;9.38;;
65031;SDS011;51593;55.714;37.436;2022-10-22T06:46:58;14.65;;;8.65;;
65031;SDS011;51593;55.714;37.436;2022-10-22T06:49:24;16.10;;;9.25;;
65031;SDS011;51593;55.714;37.436;2022-10-22T06:51:53;19.10;;;10.02;;
65031;SDS011;51593;55.714;37.436;2022-10-22T06:54:19;17.58;;;9.52;;
65031;SDS011;51593;55.714;37.436;2022-10-22T06:56:45;22.95;;;9.13;;
65031;SDS011;51593;55.714;37.436;2022-10-22T06:59:11;21.17;;;8.93;;
65031;SDS011;51593;55.714;37.436;2022-10-22T07:01:38;14.50;;;7.57;;
65031;SDS011;51593;55.714;37.436;2022-10-22T07:04:04;15.18;;;7.70;;
65031;SDS011;51593;55.714;37.436;2022-10-22T07:06:30;12.77;;;7.10;;
65031;SDS011;51593;55.714;37.436;2022-10-22T07:08:56;14.50;;;8.75;;
65031;SDS011;51593;55.714;37.436;2022-10-22T07:11:23;31.45;;;20.25;;
65031;SDS011;51593;55.714;37.436;2022-10-22T07:13:52;35.95;;;18.15;;
65031;SDS011;51593;55.714;37.436;2022-10-22T07:16:18;32.13;;;13.52;;
65031;SDS011;51593;55.714;37.436;2022-10-22T07:18:45;16.70;;;7.40;;
65031;SDS011;51593;55.714;37.436;2022-10-22T07:21:11;12.68;;;6.05;;
65031;SDS011;51593;55.714;37.436;2022-10-22T07:23:38;10.10;;;4.88;;
65031;SDS011;51593;55.714;37.436;2022-10-22T07:26:04;11.93;;;4.85;;
65031;SDS011;51593;55.714;37.436;2022-10-22T07:28:36;12.45;;;4.80;;
65031;SDS011;51593;55.714;37.436;2022-10-22T07:31:04;8.95;;;4.00;;
65031;SDS011;51593;55.714;37.436;2022-10-22T07:33:30;6.38;;;3.50;;
65031;SDS011;51593;55.714;37.436;2022-10-22T07:36:00;7.78;;;3.55;;
65031;SDS011;51593;55.714;37.436;2022-10-22T07:38:27;5.95;;;3.30;;
65031;SDS011;51593;55.714;37.436;2022-10-22T07:40:54;8.10;;;3.83;;
65031;SDS011;51593;55.714;37.436;2022-10-22T07:43:21;9.85;;;4.20;;
65031;SDS011;51593;55.714;37.436;2022-10-22T07:45:46;7.63;;;4.45;;
65031;SDS011;51593;55.714;37.436;2022-10-22T07:48:12;8.77;;;3.90;;
65031;SDS011;51593;55.714;37.436;2022-10-22T07:50:38;6.68;;;3.95;;
65031;SDS011;51593;55.714;37.436;2022-10-22T07:53:03;8.80;;;4.53;;
65031;SDS011;51593;55.714;37.436;2022-10-22T07:55:30;12.45;;;4.43;;
65031;SDS011;51593;55.714;37.436;2022-10-22T07:57:58;12.80;;;5.03;;
65031;SDS011;51593;55.714;37.436;2022-10-22T08:00:23;7.47;;;4.60;;
65031;SDS011;51593;55.714;37.436;2022-10-22T08:02:49;11.98;;;4.40;;
65031;SDS011;51593;55.714;37.436;2022-10-22T08:05:15;7.80;;;4.28;;
65031;SDS011;51593;55.714;37.436;2022-10-22T08:07:41;13.07;;;4.78;;
65031;SDS011;51593;55.714;37.436;2022-10-22T08:10:07;11.00;;;4.32;;
65031;SDS011;51593;55.714;37.436;2022-10-22T08:12:34;14.55;;;4.97;;
65031;SDS011;51593;55.714;37.436;2022-10-22T08:15:00;13.70;;;4.70;;
65031;SDS011;51593;55.714;37.436;2022-10-22T08:17:26;13.73;;;4.72;;
65031;SDS011;51593;55.714;37.436;2022-10-22T08:19:52;7.60;;;4.13;;
65031;SDS011;51593;55.714;37.436;2022-10-22T08:22:18;9.98;;;4.00;;
65031;SDS011;51593;55.714;37.436;2022-10-22T08:24:44;7.28;;;4.00;;
65031;SDS011;51593;55.714;37.436;2022-10-22T08:27:10;15.10;;;4.43;;
65031;SDS011;51593;55.714;37.436;2022-10-22T08:29:37;17.80;;;5.50;;
65031;SDS011;51593;55.714;37.436;2022-10-22T08:32:03;20.67;;;5.28;;
65031;SDS011;51593;55.714;37.436;2022-10-22T08:34:29;19.60;;;5.30;;
65031;SDS011;51593;55.714;37.436;2022-10-22T08:36:55;12.50;;;4.90;;
65031;SDS011;51593;55.714;37.436;2022-10-22T08:39:22;12.18;;;5.30;;
65031;SDS011;51593;55.714;37.436;2022-10-22T08:50:10;11.60;;;4.65;;
65031;SDS011;51593;55.714;37.436;2022-10-22T08:52:39;15.40;;;5.57;;
65031;SDS011;51593;55.714;37.436;2022-10-22T08:55:08;15.05;;;5.55;;
65031;SDS011;51593;55.714;37.436;2022-10-22T08:57:59;29.27;;;7.10;;
65031;SDS011;51593;55.714;37.436;2022-10-22T09:00:49;18.20;;;6.70;;
65031;SDS011;51593;55.714;37.436;2022-10-22T09:03:23;15.02;;;5.85;;
65031;SDS011;51593;55.714;37.436;2022-10-22T09:06:17;20.38;;;6.40;;
65031;SDS011;51593;55.714;37.436;2022-10-22T09:08:45;24.02;;;8.50;;
65031;SDS011;51593;55.714;37.436;2022-10-22T09:13:39;11.98;;;5.82;;
65031;SDS011;51593;55.714;37.436;2022-10-22T09:16:17;19.05;;;7.22;;
65031;SDS011;51593;55.714;37.436;2022-10-22T09:19:32;15.05;;;5.78;;
65031;SDS011;51593;55.714;37.436;2022-10-22T09:24:36;15.27;;;5.82;;
65031;SDS011;51593;55.714;37.436;2022-10-22T09:27:09;9.70;;;5.55;;
65031;SDS011;51593;55.714;37.436;2022-10-22T09:29:37;16.88;;;5.80;;
65031;SDS011;51593;55.714;37.436;2022-10-22T09:32:02;13.00;;;6.00;;
65031;SDS011;51593;55.714;37.436;2022-10-22T09:34:32;13.57;;;5.50;;
65031;SDS011;51593;55.714;37.436;2022-10-22T09:36:58;10.50;;;5.40;;
65031;SDS011;51593;55.714;37.436;2022-10-22T09:39:48;14.95;;;6.65;;
65031;SDS011;51593;55.714;37.436;2022-10-22T09:42:14;14.23;;;5.70;;
65031;SDS011;51593;55.714;37.436;2022-10-22T09:44:40;8.68;;;5.13;;
65031;SDS011;51593;55.714;37.436;2022-10-22T09:47:11;12.00;;;5.72;;
65031;SDS011;51593;55.714;37.436;2022-10-22T09:50:05;9.40;;;5.38;;
65031;SDS011;51593;55.714;37.436;2022-10-22T09:52:59;13.55;;;5.50;;
65031;SDS011;51593;55.714;37.436;2022-10-22T09:55:30;19.25;;;5.85;;
65031;SDS011;51593;55.714;37.436;2022-10-22T09:57:57;15.40;;;5.82;;
65031;SDS011;51593;55.714;37.436;2022-10-22T10:00:24;19.35;;;6.68;;
65031;SDS011;51593;55.714;37.436;2022-10-22T10:02:58;17.83;;;6.55;;
65031;SDS011;51593;55.714;37.436;2022-10-22T10:05:25;15.27;;;5.90;;
65031;SDS011;51593;55.714;37.436;2022-10-22T10:07:53;14.15;;;5.32;;
65031;SDS011;51593;55.714;37.436;2022-10-22T10:10:36;17.77;;;5.25;;
65031;SDS011;51593;55.714;37.436;2022-10-22T10:24:35;14.77;;;5.60;;
65031;SDS011;51593;55.714;37.436;2022-10-22T10:27:13;12.85;;;5.18;;
65031;SDS011;51593;55.714;37.436;2022-10-22T10:30:02;17.77;;;5.63;;
65031;SDS011;51593;55.714;37.436;2022-10-22T10:32:50;21.13;;;5.82;;
65031;SDS011;51593;55.714;37.436;2022-10-22T10:35:52;19.65;;;5.75;;
65031;SDS011;51593;55.714;37.436;2022-10-22T10:43:15;12.70;;;4.43;;
65031;SDS011;51593;55.714;37.436;2022-10-22T10:55:58;9.80;;;4.20;;
65031;SDS011;51593;55.714;37.436;2022-10-22T11:07:17;10.02;;;4.82;;
65031;SDS011;51593;55.714;37.436;2022-10-22T11:09:49;9.98;;;4.13;;
65031;SDS011;51593;55.714;37.436;2022-10-22T11:12:32;9.57;;;4.60;;
65031;SDS011;51593;55.714;37.436;2022-10-22T11:15:02;8.65;;;4.40;;
65031;SDS011;51593;55.714;37.436;2022-10-22T11:17:35;8.13;;;4.07;;
65031;SDS011;51593;55.714;37.436;2022-10-22T11:20:11;15.55;;;4.78;;
65031;SDS011;51593;55.714;37.436;2022-10-22T11:22:58;8.43;;;4.30;;
65031;SDS011;51593;55.714;37.436;2022-10-22T11:25:28;14.35;;;4.55;;
65031;SDS011;51593;55.714;37.436;2022-10-22T11:27:58;11.98;;;5.07;;
65031;SDS011;51593;55.714;37.436;2022-10-22T11:30:30;8.20;;;4.40;;
65031;SDS011;51593;55.714;37.436;2022-10-22T11:33:09;11.48;;;4.60;;
65031;SDS011;51593;55.714;37.436;2022-10-22T11:35:38;8.50;;;4.13;;
65031;SDS011;51593;55.714;37.436;2022-10-22T11:38:06;12.40;;;4.82;;
65031;SDS011;51593;55.714;37.436;2022-10-22T11:40:35;16.55;;;5.03;;
65031;SDS011;51593;55.714;37.436;2022-10-22T11:43:10;11.75;;;4.93;;
65031;SDS011;51593;55.714;37.436;2022-10-22T11:45:37;7.45;;;3.95;;
65031;SDS011;51593;55.714;37.436;2022-10-22T11:50:57;8.70;;;4.50;;
65031;SDS011;51593;55.714;37.436;2022-10-22T11:53:34;12.07;;;5.10;;
65031;SDS011;51593;55.714;37.436;2022-10-22T12:03:38;15.43;;;5.07;;
65031;SDS011;51593;55.714;37.436;2022-10-22T12:14:10;15.82;;;4.50;;
65031;SDS011;51593;55.714;37.436;2022-10-22T12:16:39;9.15;;;4.38;;
65031;SDS011;51593;55.714;37.436;2022-10-22T12:19:22;11.68;;;4.88;;
65031;SDS011;51593;55.714;37.436;2022-10-22T12:22:20;10.23;;;4.15;;
65031;SDS011;51593;55.714;37.436;2022-10-22T12:24:48;10.77;;;4.07;;
65031;SDS011;51593;55.714;37.436;2022-10-22T12:27:26;10.77;;;3.47;;
65031;SDS011;51593;55.714;37.436;2022-10-22T12:29:55;8.00;;;2.80;;
65031;SDS011;51593;55.714;37.436;2022-10-22T12:32:22;12.02;;;3.92;;
65031;SDS011;51593;55.714;37.436;2022-10-22T12:34:53;10.07;;;3.00;;
65031;SDS011;51593;55.714;37.436;2022-10-22T12:37:19;9.75;;;2.85;;
65031;SDS011;51593;55.714;37.436;2022-10-22T12:39:45;8.10;;;2.97;;
65031;SDS011;51593;55.714;37.436;2022-10-22T12:42:12;7.53;;;2.80;;
65031;SDS011;51593;55.714;37.436;2022-10-22T12:44:39;5.50;;;2.50;;
65031;SDS011;51593;55.714;37.436;2022-10-22T12:47:14;7.68;;;2.67;;
65031;SDS011;51593;55.714;37.436;2022-10-22T12:49:41;5.40;;;3.00;;
65031;SDS011;51593;55.714;37.436;2022-10-22T12:52:12;8.65;;;3.38;;
65031;SDS011;51593;55.714;37.436;2022-10-22T12:54:41;8.13;;;3.17;;
65031;SDS011;51593;55.714;37.436;2022-10-22T12:57:09;7.40;;;3.17;;
65031;SDS011;51593;55.714;37.436;2022-10-22T12:59:38;6.20;;;3.22;;
65031;SDS011;51593;55.714;37.436;2022-10-22T13:02:11;7.38;;;3.10;;
65031;SDS011;51593;55.714;37.436;2022-10-22T13:04:53;6.07;;;2.85;;
65031;SDS011;51593;55.714;37.436;2022-10-22T13:07:49;5.68;;;2.88;;
65031;SDS011;51593;55.714;37.436;2022-10-22T13:10:26;5.88;;;2.90;;
65031;SDS011;51593;55.714;37.436;2022-10-22T13:12:56;5.28;;;2.80;;
65031;SDS011;51593;55.714;37.436;2022-10-22T13:20:30;9.45;;;3.22;;
65031;SDS011;51593;55.714;37.436;2022-10-22T13:22:57;5.90;;;3.00;;
65031;SDS011;51593;55.714;37.436;2022-10-22T13:25:30;8.07;;;3.65;;
65031;SDS011;51593;55.714;37.436;2022-10-22T13:28:01;7.88;;;3.50;;
65031;SDS011;51593;55.714;37.436;2022-10-22T13:30:36;8.25;;;3.70;;
65031;SDS011;51593;55.714;37.436;2022-10-22T13:33:16;7.20;;;3.00;;
65031;SDS011;51593;55.714;37.436;2022-10-22T13:35:50;6.45;;;2.72;;
65031;SDS011;51593;55.714;37.436;2022-10-22T13:38:18;7.47;;;2.97;;
65031;SDS011;51593;55.714;37.436;2022-10-22T13:40:44;4.65;;;2.70;;
65031;SDS011;51593;55.714;37.436;2022-10-22T13:43:11;8.10;;;3.00;;
65031;SDS011;51593;55.714;37.436;2022-10-22T13:45:36;6.38;;;2.67;;
65031;SDS011;51593;55.714;37.436;2022-10-22T13:48:02;4.78;;;2.72;;
65031;SDS011;51593;55.714;37.436;2022-10-22T13:50:28;5.82;;;2.55;;
65031;SDS011;51593;55.714;37.436;2022-10-22T13:52:55;6.82;;;2.90;;
65031;SDS011;51593;55.714;37.436;2022-10-22T13:55:23;6.68;;;2.70;;
65031;SDS011;51593;55.714;37.436;2022-10-22T13:57:55;5.43;;;2.78;;
65031;SDS011;51593;55.714;37.436;2022-10-22T14:00:24;4.70;;;2.97;;
65031;SDS011;51593;55.714;37.436;2022-10-22T14:02:51;8.13;;;3.22;;
65031;SDS011;51593;55.714;37.436;2022-10-22T14:05:18;5.97;;;2.92;;
65031;SDS011;51593;55.714;37.436;2022-10-22T14:07:44;8.25;;;3.03;;
65031;SDS011;51593;55.714;37.436;2022-10-22T14:12:40;9.05;;;3.45;;
65031;SDS011;51593;55.714;37.436;2022-10-22T14:15:07;9.43;;;3.70;;
65031;SDS011;51593;55.714;37.436;2022-10-22T14:17:35;10.43;;;3.15;;
65031;SDS011;51593;55.714;37.436;2022-10-22T14:20:02;11.70;;;3.80;;
65031;SDS011;51593;55.714;37.436;2022-10-22T14:22:28;11.35;;;4.53;;
65031;SDS011;51593;55.714;37.436;2022-10-22T14:24:54;10.80;;;4.90;;
65031;SDS011;51593;55.714;37.436;2022-10-22T14:27:20;14.63;;;4.88;;
65031;SDS011;51593;55.714;37.436;2022-10-22T14:29:46;16.27;;;5.03;;
65031;SDS011;51593;55.714;37.436;2022-10-22T14:32:13;15.50;;;5.60;;
65031;SDS011;51593;55.714;37.436;2022-10-22T14:34:40;19.10;;;5.65;;
65031;SDS011;51593;55.714;37.436;2022-10-22T14:37:17;23.42;;;6.03;;
65031;SDS011;51593;55.714;37.436;2022-10-22T14:39:45;16.58;;;6.13;;
65031;SDS011;51593;55.714;37.436;2022-10-22T14:42:16;13.25;;;6.22;;
65031;SDS011;51593;55.714;37.436;2022-10-22T14:44:43;12.05;;;6.03;;
65031;SDS011;51593;55.714;37.436;2022-10-22T14:47:09;13.20;;;6.95;;
65031;SDS011;51593;55.714;37.436;2022-10-22T14:49:35;15.40;;;7.03;;
65031;SDS011;51593;55.714;37.436;2022-10-22T14:52:01;13.15;;;7.20;;
65031;SDS011;51593;55.714;37.436;2022-10-22T14:54:27;13.10;;;7.13;;
65031;SDS011;51593;55.714;37.436;2022-10-22T14:56:52;12.50;;;7.05;;
65031;SDS011;51593;55.714;37.436;2022-10-22T14:59:18;14.07;;;7.35;;
65031;SDS011;51593;55.714;37.436;2022-10-22T15:04:38;19.65;;;7.68;;
65031;SDS011;51593;55.714;37.436;2022-10-22T15:07:04;12.98;;;7.75;;
65031;SDS011;51593;55.714;37.436;2022-10-22T15:09:30;12.65;;;7.13;;
65031;SDS011;51593;55.714;37.436;2022-10-22T15:11:56;14.18;;;7.00;;
65031;SDS011;51593;55.714;37.436;2022-10-22T15:14:25;12.55;;;6.55;;
65031;SDS011;51593;55.714;37.436;2022-10-22T15:16:51;13.18;;;6.63;;
65031;SDS011;51593;55.714;37.436;2022-10-22T15:19:17;13.55;;;7.43;;
65031;SDS011;51593;55.714;37.436;2022-10-22T15:21:43;13.20;;;7.32;;
65031;SDS011;51593;55.714;37.436;2022-10-22T15:24:08;15.95;;;7.05;;
65031;SDS011;51593;55.714;37.436;2022-10-22T15:26:35;15.75;;;7.35;;
65031;SDS011;51593;55.714;37.436;2022-10-22T15:29:01;13.63;;;7.15;;
65031;SDS011;51593;55.714;37.436;2022-10-22T15:31:41;13.70;;;7.43;;
65031;SDS011;51593;55.714;37.436;2022-10-22T15:34:08;10.55;;;6.85;;
65031;SDS011;51593;55.714;37.436;2022-10-22T15:36:34;11.85;;;6.63;;
65031;SDS011;51593;55.714;37.436;2022-10-22T15:39:04;13.68;;;6.15;;
65031;SDS011;51593;55.714;37.436;2022-10-22T15:41:34;13.07;;;6.50;;
65031;SDS011;51593;55.714;37.436;2022-10-22T15:44:00;9.57;;;6.13;;
65031;SDS011;51593;55.714;37.436;2022-10-22T15:46:26;10.20;;;6.60;;
65031;SDS011;51593;55.714;37.436;2022-10-22T15:48:53;12.10;;;6.90;;
65031;SDS011;51593;55.714;37.436;2022-10-22T15:51:19;11.10;;;6.47;;
65031;SDS011;51593;55.714;37.436;2022-10-22T15:54:03;12.98;;;6.80;;
65031;SDS011;51593;55.714;37.436;2022-10-22T15:56:29;12.68;;;6.43;;
65031;SDS011;51593;55.714;37.436;2022-10-22T15:58:59;12.65;;;7.00;;
65031;SDS011;51593;55.714;37.436;2022-10-22T16:01:29;10.60;;;6.90;;
65031;SDS011;51593;55.714;37.436;2022-10-22T16:03:57;17.88;;;7.47;;
65031;SDS011;51593;55.714;37.436;2022-10-22T16:09:07;10.32;;;6.47;;
65031;SDS011;51593;55.714;37.436;2022-10-22T16:11:35;16.33;;;6.85;;
65031;SDS011;51593;55.714;37.436;2022-10-22T16:14:02;11.63;;;7.22;;
65031;SDS011;51593;55.714;37.436;2022-10-22T16:16:29;11.05;;;6.63;;
65031;SDS011;51593;55.714;37.436;2022-10-22T16:18:57;14.32;;;6.97;;
65031;SDS011;51593;55.714;37.436;2022-10-22T16:21:23;13.18;;;6.90;;
65031;SDS011;51593;55.714;37.436;2022-10-22T16:23:49;13.70;;;6.78;;
65031;SDS011;51593;55.714;37.436;2022-10-22T16:26:16;10.55;;;6.70;;
65031;SDS011;51593;55.714;37.436;2022-10-22T16:28:43;15.10;;;7.18;;
65031;SDS011;51593;55.714;37.436;2022-10-22T16:31:10;15.63;;;7.63;;
65031;SDS011;51593;55.714;37.436;2022-10-22T16:33:42;12.20;;;7.40;;